Time;durP1;ratioP1;P1;durP2;ratioP2;P2;SDS_P1;SDS_P2;PMS_P1;PMS_P2;Temp;Humidity;BMP_temperature;BMP_pressure;BME280_temperature;BME280_humidity;BME280_pressure;Samples;Min_cycle;Max_cycle;Signal;HPM_P1;HPM_P2
2021/09/03 00:02:20;;;;;;;33.93;29.27;;;16.90;93.50;;;;;;5052627;28;20578;-76
2021/09/03 00:04:45;;;;;;;31.30;28.13;;;16.90;94.20;;;;;;5053449;28;20211;-77
2021/09/03 00:07:11;;;;;;;31.67;28.50;;;16.90;94.20;;;;;;5053206;28;20173;-78
2021/09/03 00:09:38;;;;;;;32.43;28.57;;;16.90;94.00;;;;;;5052722;28;20180;-79
2021/09/03 00:12:06;;;;;;;33.43;28.93;;;16.80;94.10;;;;;;5052699;28;20170;-77
2021/09/03 00:14:33;;;;;;;31.93;28.80;;;16.90;94.40;;;;;;5052739;28;20184;-77
2021/09/03 00:16:59;;;;;;;31.97;28.63;;;16.80;94.20;;;;;;5052465;28;20810;-77
2021/09/03 00:19:25;;;;;;;33.03;29.63;;;16.80;94.10;;;;;;5053086;28;20161;-78
2021/09/03 00:21:52;;;;;;;32.70;29.17;;;16.80;94.50;;;;;;5052881;28;20519;-78
2021/09/03 00:24:21;;;;;;;32.93;29.53;;;16.80;95.00;;;;;;5053053;28;20173;-78
2021/09/03 00:26:47;;;;;;;34.67;29.97;;;16.70;95.00;;;;;;5052759;28;20180;-77
2021/09/03 00:29:13;;;;;;;32.47;29.07;;;16.70;94.90;;;;;;5054936;28;20173;-77
2021/09/03 00:31:39;;;;;;;32.13;28.83;;;16.70;95.00;;;;;;5056318;28;20172;-77
2021/09/03 00:34:05;;;;;;;32.67;29.10;;;16.70;95.10;;;;;;5056476;28;20578;-77
2021/09/03 00:36:30;;;;;;;31.80;28.33;;;16.60;95.80;;;;;;5056553;28;20570;-78
2021/09/03 00:38:56;;;;;;;32.43;29.07;;;16.60;96.10;;;;;;5055458;28;20173;-78
2021/09/03 00:41:22;;;;;;;35.27;29.37;;;16.60;96.80;;;;;;5056477;28;20173;-77
2021/09/03 00:43:47;;;;;;;33.63;29.57;;;16.50;97.00;;;;;;5057358;28;20192;-77
2021/09/03 00:46:13;;;;;;;34.83;29.47;;;16.40;97.30;;;;;;5056784;28;20605;-77
2021/09/03 00:48:39;;;;;;;33.80;30.17;;;16.40;97.40;;;;;;5060937;28;20197;-78
2021/09/03 00:51:06;;;;;;;34.47;30.90;;;16.40;97.70;;;;;;5073632;28;20316;-77
2021/09/03 00:53:33;;;;;;;35.43;30.37;;;16.40;97.90;;;;;;5080403;28;20180;-77
2021/09/03 00:55:59;;;;;;;37.03;31.00;;;16.30;97.80;;;;;;5077578;28;20246;-78
2021/09/03 00:58:25;;;;;;;33.80;30.20;;;16.30;98.20;;;;;;5067528;28;20260;-78
2021/09/03 01:00:51;;;;;;;35.17;30.57;;;16.30;98.50;;;;;;5057568;28;20264;-78
2021/09/03 01:03:18;;;;;;;35.77;31.97;;;16.20;98.70;;;;;;5058106;28;20184;-78
2021/09/03 01:05:47;;;;;;;33.97;30.33;;;16.30;98.80;;;;;;5056438;28;20626;-78
2021/09/03 01:08:20;;;;;;;33.40;29.83;;;16.10;99.00;;;;;;5055861;28;20167;-77
2021/09/03 01:10:48;;;;;;;35.97;30.00;;;16.10;99.30;;;;;;5056127;28;20165;-78
2021/09/03 01:13:13;;;;;;;34.20;30.20;;;16.10;99.50;;;;;;5055821;28;20214;-78
2021/09/03 01:15:39;;;;;;;36.40;31.73;;;16.30;99.30;;;;;;5055711;28;20295;-78
2021/09/03 01:18:06;;;;;;;36.30;31.00;;;16.20;99.30;;;;;;5056086;28;20192;-78
2021/09/03 01:20:32;;;;;;;34.40;30.80;;;16.10;99.20;;;;;;5060737;28;20161;-77
2021/09/03 01:22:58;;;;;;;34.90;31.20;;;16.10;99.20;;;;;;5061636;28;20168;-77
2021/09/03 01:25:23;;;;;;;35.50;31.60;;;16.10;99.50;;;;;;5058306;28;20165;-78
2021/09/03 01:27:49;;;;;;;34.83;31.00;;;16.10;99.70;;;;;;5080960;28;20157;-77
2021/09/03 01:30:16;;;;;;;35.00;31.07;;;16.00;99.90;;;;;;5080617;28;20157;-77
2021/09/03 01:32:43;;;;;;;34.60;30.70;;;16.10;99.90;;;;;;5077974;28;20594;-77
2021/09/03 01:35:09;;;;;;;35.93;32.03;;;16.10;99.90;;;;;;5057963;28;20197;-77
2021/09/03 01:37:35;;;;;;;34.93;31.23;;;16.10;99.90;;;;;;5059216;28;20633;-78
2021/09/03 01:40:01;;;;;;;38.37;32.17;;;16.10;99.80;;;;;;5056989;28;20558;-78
2021/09/03 01:42:31;;;;;;;37.70;31.47;;;16.10;99.90;;;;;;5070653;28;20254;-77
2021/09/03 01:44:57;;;;;;;35.27;31.53;;;16.00;99.90;;;;;;5061500;28;20165;-78
2021/09/03 01:47:22;;;;;;;38.30;32.00;;;15.90;99.90;;;;;;5053923;28;20651;-78
2021/09/03 01:49:48;;;;;;;35.43;31.63;;;15.90;99.90;;;;;;5055104;28;20651;-78
2021/09/03 01:52:15;;;;;;;34.40;30.80;;;15.90;99.90;;;;;;5055124;28;20244;-78
2021/09/03 01:54:40;;;;;;;35.90;32.00;;;15.90;99.90;;;;;;5055019;28;20165;-77
2021/09/03 01:57:06;;;;;;;35.43;31.77;;;15.90;99.90;;;;;;5055013;28;20682;-77
2021/09/03 01:59:32;;;;;;;37.90;31.67;;;15.80;99.90;;;;;;5054455;28;20168;-77
2021/09/03 02:01:57;;;;;;;37.33;32.17;;;15.80;99.90;;;;;;5054895;28;20164;-79
2021/09/03 02:04:23;;;;;;;36.50;32.70;;;15.70;99.90;;;;;;5054504;28;20198;-77
2021/09/03 02:06:49;;;;;;;37.30;33.07;;;15.70;99.90;;;;;;5054723;28;20525;-78
2021/09/03 02:09:14;;;;;;;37.00;32.93;;;15.70;99.90;;;;;;5054667;28;20169;-77
2021/09/03 02:11:40;;;;;;;35.33;31.57;;;15.60;99.90;;;;;;5054702;28;20161;-77
2021/09/03 02:14:06;;;;;;;36.97;33.07;;;15.60;99.90;;;;;;5054291;28;20175;-79
2021/09/03 02:16:31;;;;;;;39.13;34.27;;;15.60;99.90;;;;;;5054422;28;20199;-78
2021/09/03 02:18:58;;;;;;;40.83;34.93;;;15.60;99.90;;;;;;5054522;28;20534;-77
2021/09/03 02:21:24;;;;;;;37.90;33.30;;;15.60;99.90;;;;;;5054521;28;20174;-78
2021/09/03 02:23:50;;;;;;;37.57;32.77;;;15.60;99.90;;;;;;5054420;28;20169;-78
2021/09/03 02:26:15;;;;;;;39.70;34.47;;;15.50;99.90;;;;;;5054358;28;20550;-78
2021/09/03 02:28:41;;;;;;;40.23;33.37;;;15.50;99.90;;;;;;5053970;28;20269;-79
2021/09/03 02:31:07;;;;;;;39.67;34.10;;;15.40;99.90;;;;;;5054604;28;20173;-78
2021/09/03 02:33:33;;;;;;;42.70;35.17;;;15.40;99.90;;;;;;5053858;28;20736;-79
2021/09/03 02:35:59;;;;;;;39.73;35.37;;;15.40;99.90;;;;;;5054141;28;20285;-79
2021/09/03 02:38:24;;;;;;;38.63;34.27;;;15.40;99.90;;;;;;5054083;28;20240;-79
2021/09/03 02:40:50;;;;;;;39.27;33.03;;;15.40;99.90;;;;;;5054161;28;20177;-78
2021/09/03 02:43:16;;;;;;;40.33;34.43;;;15.40;99.90;;;;;;5053881;28;20165;-77
2021/09/03 02:45:41;;;;;;;38.30;34.13;;;15.50;99.90;;;;;;5054045;28;20169;-77
2021/09/03 02:48:07;;;;;;;42.97;34.30;;;15.20;99.90;;;;;;5053975;28;20658;-77
2021/09/03 02:50:33;;;;;;;40.07;33.40;;;15.30;99.90;;;;;;5054004;28;20173;-77
2021/09/03 02:52:59;;;;;;;41.13;34.60;;;15.30;99.90;;;;;;5053063;28;20248;-77
2021/09/03 02:55:28;;;;;;;39.30;33.57;;;15.30;99.90;;;;;;5052843;28;20203;-78
2021/09/03 02:57:54;;;;;;;38.23;33.47;;;15.30;99.90;;;;;;5053673;28;20257;-78
2021/09/03 03:00:20;;;;;;;41.10;35.23;;;15.30;99.90;;;;;;5053958;28;20178;-78
2021/09/03 03:02:46;;;;;;;41.10;35.00;;;15.40;99.90;;;;;;5053785;28;20168;-78
2021/09/03 03:05:11;;;;;;;38.07;33.77;;;15.30;99.90;;;;;;5052467;28;20187;-78
2021/09/03 03:07:37;;;;;;;40.03;35.37;;;15.30;99.90;;;;;;5053508;28;20241;-78
2021/09/03 03:10:05;;;;;;;37.73;33.33;;;15.30;99.90;;;;;;5054040;28;20181;-78
2021/09/03 03:12:30;;;;;;;39.73;35.03;;;15.20;99.90;;;;;;5053454;28;20256;-77
2021/09/03 03:14:56;;;;;;;38.40;33.90;;;15.30;99.90;;;;;;5052199;28;20271;-77
2021/09/03 03:17:22;;;;;;;40.00;35.13;;;15.20;99.90;;;;;;5053646;28;20201;-77
2021/09/03 03:19:47;;;;;;;38.90;34.67;;;15.30;99.90;;;;;;5053441;28;20692;-77
2021/09/03 03:22:13;;;;;;;39.40;34.30;;;15.30;99.90;;;;;;5052321;28;20181;-78
2021/09/03 03:24:39;;;;;;;40.03;34.10;;;15.30;99.90;;;;;;5053413;28;20285;-78
2021/09/03 03:27:04;;;;;;;42.50;36.90;;;15.30;99.90;;;;;;5053101;28;20659;-79
2021/09/03 03:29:30;;;;;;;42.53;34.00;;;15.10;99.90;;;;;;5053439;28;20252;-78
2021/09/03 03:31:56;;;;;;;39.93;34.37;;;15.20;99.90;;;;;;5053115;28;20177;-78
2021/09/03 03:34:21;;;;;;;39.03;34.33;;;15.20;99.90;;;;;;5053238;28;20199;-78
2021/09/03 03:36:47;;;;;;;40.07;35.67;;;15.20;99.90;;;;;;5051834;28;20212;-78
2021/09/03 03:39:13;;;;;;;41.40;36.60;;;15.20;99.90;;;;;;5054230;28;20170;-78
2021/09/03 03:41:39;;;;;;;39.67;35.03;;;15.10;99.90;;;;;;5054087;28;20226;-77
2021/09/03 03:44:05;;;;;;;45.73;36.90;;;15.20;99.90;;;;;;5053175;28;20205;-77
2021/09/03 03:46:31;;;;;;;47.20;37.80;;;15.10;99.90;;;;;;5053130;28;20256;-77
2021/09/03 03:48:57;;;;;;;39.27;34.00;;;15.10;99.90;;;;;;5053294;28;20203;-78
2021/09/03 03:51:23;;;;;;;40.60;36.20;;;15.20;99.90;;;;;;5051850;28;20211;-78
2021/09/03 03:53:48;;;;;;;41.60;35.40;;;15.00;99.90;;;;;;5052153;28;20545;-78
2021/09/03 03:56:14;;;;;;;39.83;35.50;;;15.00;99.90;;;;;;5053339;28;20231;-78
2021/09/03 03:58:40;;;;;;;41.03;36.00;;;15.00;99.90;;;;;;5053769;28;20163;-78
2021/09/03 04:01:06;;;;;;;41.67;35.97;;;15.00;99.90;;;;;;5053378;28;20540;-78
2021/09/03 04:03:31;;;;;;;45.93;36.87;;;14.90;99.90;;;;;;5053828;28;20193;-78
2021/09/03 04:05:57;;;;;;;44.70;36.60;;;14.90;99.90;;;;;;5057472;28;20575;-78
2021/09/03 04:08:22;;;;;;;48.30;36.43;;;14.90;99.90;;;;;;5057904;28;20639;-77
2021/09/03 04:10:48;;;;;;;44.07;37.90;;;14.80;99.90;;;;;;5058213;28;20208;-78
2021/09/03 04:13:14;;;;;;;49.73;39.73;;;14.80;99.90;;;;;;5072761;28;20161;-76
2021/09/03 04:15:40;;;;;;;45.47;37.93;;;14.80;99.90;;;;;;5069583;28;20198;-78
2021/09/03 04:18:05;;;;;;;47.10;37.87;;;14.80;99.90;;;;;;5057455;28;20277;-77
2021/09/03 04:20:31;;;;;;;43.40;36.57;;;14.70;99.90;;;;;;5056987;28;20249;-78
2021/09/03 04:22:57;;;;;;;45.10;37.57;;;14.80;99.90;;;;;;5056555;28;20163;-78
2021/09/03 04:25:23;;;;;;;47.07;38.67;;;14.80;99.90;;;;;;5057156;28;20163;-78
2021/09/03 04:27:48;;;;;;;46.50;37.87;;;14.80;99.90;;;;;;5055380;28;20170;-78
2021/09/03 04:30:15;;;;;;;44.37;37.60;;;14.80;99.90;;;;;;5057282;28;20180;-78
2021/09/03 04:32:41;;;;;;;49.47;37.83;;;14.70;99.90;;;;;;5068483;28;20173;-78
2021/09/03 04:35:08;;;;;;;49.47;37.83;;;14.70;99.90;;;;;;5071518;28;20219;-78
2021/09/03 04:37:48;;;;;;;46.43;37.40;;;14.80;99.90;;;;;;5055317;28;20187;-78
2021/09/03 04:40:15;;;;;;;45.20;36.10;;;14.80;99.90;;;;;;5056397;28;20187;-78
2021/09/03 04:42:40;;;;;;;46.03;38.37;;;14.80;99.90;;;;;;5056671;28;20181;-79
2021/09/03 04:45:07;;;;;;;45.27;38.23;;;14.80;99.90;;;;;;5056438;28;20204;-79
2021/09/03 04:47:33;;;;;;;47.80;37.63;;;14.80;99.90;;;;;;5056179;28;20167;-78
2021/09/03 04:49:59;;;;;;;47.13;39.30;;;14.70;99.90;;;;;;5055117;28;20182;-78
2021/09/03 04:52:24;;;;;;;45.90;36.97;;;14.70;99.90;;;;;;5054368;28;20178;-78
2021/09/03 04:54:50;;;;;;;45.67;37.77;;;14.70;99.90;;;;;;5056307;28;20172;-77
2021/09/03 04:57:15;;;;;;;50.50;38.43;;;14.70;99.90;;;;;;5055836;28;20298;-78
2021/09/03 04:59:41;;;;;;;46.50;38.90;;;14.70;99.90;;;;;;5056123;28;20180;-78
2021/09/03 05:02:07;;;;;;;46.43;38.17;;;14.70;99.90;;;;;;5056137;28;20177;-79
2021/09/03 05:04:32;;;;;;;50.83;40.00;;;14.60;99.90;;;;;;5056256;28;20177;-78
2021/09/03 05:06:58;;;;;;;47.63;36.80;;;14.50;99.90;;;;;;5054354;28;20180;-78
2021/09/03 05:09:24;;;;;;;51.10;40.17;;;14.50;99.90;;;;;;5055898;28;20282;-77
2021/09/03 05:11:49;;;;;;;52.63;40.60;;;14.50;99.90;;;;;;5054534;28;20176;-78
2021/09/03 05:14:15;;;;;;;51.03;38.73;;;14.50;99.90;;;;;;5055762;28;20200;-79
2021/09/03 05:16:41;;;;;;;48.47;38.63;;;14.50;99.90;;;;;;5054649;28;20304;-79
2021/09/03 05:19:07;;;;;;;50.13;40.60;;;14.50;99.90;;;;;;5055496;28;20647;-79
2021/09/03 05:21:33;;;;;;;51.70;39.83;;;14.50;99.90;;;;;;5055478;28;20626;-78
2021/09/03 05:23:59;;;;;;;51.20;41.10;;;14.50;99.90;;;;;;5055858;28;20176;-79
2021/09/03 05:26:24;;;;;;;52.50;41.27;;;14.70;99.90;;;;;;5055642;28;20181;-78
2021/09/03 05:28:50;;;;;;;55.57;43.10;;;14.50;99.90;;;;;;5055376;28;20179;-78
2021/09/03 05:31:16;;;;;;;52.03;41.73;;;14.50;99.90;;;;;;5055526;28;20268;-78
2021/09/03 05:33:42;;;;;;;49.47;41.17;;;14.40;99.90;;;;;;5055197;28;20190;-78
2021/09/03 05:36:08;;;;;;;52.27;41.17;;;14.50;99.90;;;;;;5055068;28;20213;-77
2021/09/03 05:38:33;;;;;;;53.53;42.93;;;14.50;99.90;;;;;;5055260;28;20181;-77
2021/09/03 05:40:59;;;;;;;58.93;43.63;;;14.40;99.90;;;;;;5055647;28;20182;-78
2021/09/03 05:43:25;;;;;;;55.07;40.67;;;14.50;99.90;;;;;;5067413;28;20542;-79
2021/09/03 05:45:51;;;;;;;54.13;44.07;;;14.50;99.90;;;;;;5085555;28;20196;-79
2021/09/03 05:48:16;;;;;;;56.47;43.47;;;14.40;99.90;;;;;;5082523;28;20163;-77
2021/09/03 05:50:42;;;;;;;50.20;41.63;;;14.40;99.90;;;;;;5063784;28;20174;-78
2021/09/03 05:53:08;;;;;;;57.00;42.30;;;14.40;99.90;;;;;;5055848;28;20724;-79
2021/09/03 05:55:33;;;;;;;52.00;42.37;;;14.40;99.90;;;;;;5069676;28;20716;-79
2021/09/03 05:58:02;;;;;;;55.70;42.70;;;14.50;99.90;;;;;;5069811;28;20182;-79
2021/09/03 06:00:29;;;;;;;58.70;43.93;;;14.50;99.90;;;;;;5055390;28;20165;-79
2021/09/03 06:02:55;;;;;;;55.17;41.97;;;14.50;99.90;;;;;;5054919;28;20159;-79
2021/09/03 06:05:21;;;;;;;55.83;43.50;;;14.50;99.90;;;;;;5056127;28;20272;-78
2021/09/03 06:07:46;;;;;;;57.17;43.27;;;14.50;99.90;;;;;;5054010;28;20181;-78
2021/09/03 06:10:12;;;;;;;55.23;43.27;;;14.60;99.90;;;;;;5059169;28;20224;-79
2021/09/03 06:12:38;;;;;;;52.57;42.67;;;14.60;99.90;;;;;;5056075;28;20640;-78
2021/09/03 06:15:06;;;;;;;54.60;42.33;;;14.50;99.90;;;;;;5055897;28;20205;-78
2021/09/03 06:17:32;;;;;;;54.93;42.70;;;14.60;99.90;;;;;;5054903;28;20691;-77
2021/09/03 06:19:59;;;;;;;53.43;43.03;;;14.60;99.90;;;;;;5076602;28;20165;-77
2021/09/03 06:22:25;;;;;;;54.00;42.53;;;14.70;99.90;;;;;;5096761;28;20187;-76
2021/09/03 06:24:50;;;;;;;52.00;43.70;;;14.80;99.90;;;;;;5094653;28;20177;-78
2021/09/03 06:27:16;;;;;;;51.17;42.77;;;14.70;99.90;;;;;;5076570;28;20248;-80
2021/09/03 06:29:43;;;;;;;50.63;42.37;;;14.70;99.90;;;;;;5076992;28;20162;-79
2021/09/03 06:32:10;;;;;;;55.63;41.70;;;14.90;99.90;;;;;;5074280;28;20248;-79
2021/09/03 06:34:39;;;;;;;54.97;41.20;;;14.80;99.90;;;;;;5073487;28;20273;-79
2021/09/03 06:37:06;;;;;;;55.37;43.00;;;14.80;99.90;;;;;;5072345;28;20285;-79
2021/09/03 06:39:33;;;;;;;54.77;41.63;;;14.90;99.90;;;;;;5063058;28;20178;-80
2021/09/03 06:41:58;;;;;;;54.23;40.67;;;15.00;99.90;;;;;;5053921;28;20233;-81
2021/09/03 06:44:24;;;;;;;58.80;40.60;;;14.90;99.90;;;;;;5053460;28;20534;-80
2021/09/03 06:46:50;;;;;;;53.00;42.00;;;15.10;99.90;;;;;;5067230;28;20260;-80
2021/09/03 06:49:17;;;;;;;56.93;42.77;;;15.00;99.90;;;;;;5073393;28;20178;-80
2021/09/03 06:51:42;;;;;;;51.63;42.57;;;14.90;99.90;;;;;;5073085;28;20170;-80
2021/09/03 06:54:08;;;;;;;51.67;40.60;;;14.90;99.90;;;;;;5073343;28;20228;-78
2021/09/03 06:56:34;;;;;;;58.27;42.07;;;15.00;99.90;;;;;;5070223;28;20339;-79
2021/09/03 06:59:00;;;;;;;60.63;42.87;;;15.00;99.90;;;;;;5070828;28;20252;-79
2021/09/03 07:01:26;;;;;;;53.07;42.60;;;15.10;99.90;;;;;;5090240;28;20153;-79
2021/09/03 07:03:52;;;;;;;54.83;40.83;;;15.10;99.90;;;;;;5088982;28;20224;-78
2021/09/03 07:06:17;;;;;;;54.87;44.53;;;15.20;99.90;;;;;;5080063;28;20174;-79
2021/09/03 07:08:43;;;;;;;57.50;43.23;;;15.20;99.90;;;;;;5071972;28;20257;-82
2021/09/03 07:11:09;;;;;;;55.97;41.53;;;15.30;99.90;;;;;;5073494;28;20187;-80
2021/09/03 07:13:35;;;;;;;59.33;42.43;;;15.30;99.90;;;;;;5073417;28;20247;-80
2021/09/03 07:16:02;;;;;;;58.03;42.60;;;15.40;99.90;;;;;;5073002;28;20196;-79
2021/09/03 07:18:27;;;;;;;55.10;41.10;;;15.50;99.90;;;;;;5072000;28;20189;-80
2021/09/03 07:20:53;;;;;;;51.80;40.43;;;15.70;99.90;;;;;;5084931;28;20333;-78
2021/09/03 07:23:19;;;;;;;50.60;40.90;;;15.80;99.90;;;;;;5091666;28;20601;-79
2021/09/03 07:25:44;;;;;;;51.53;39.13;;;15.80;99.90;;;;;;5084671;28;20182;-80
2021/09/03 07:28:10;;;;;;;52.63;38.77;;;15.80;99.90;;;;;;5072257;28;20579;-79
2021/09/03 07:30:36;;;;;;;51.07;41.77;;;15.80;99.90;;;;;;5073204;28;20176;-81
2021/09/03 07:33:01;;;;;;;53.40;41.07;;;15.80;99.90;;;;;;5071979;28;20536;-79
2021/09/03 07:35:27;;;;;;;53.63;41.03;;;15.90;99.90;;;;;;5071923;28;20203;-80
2021/09/03 07:37:53;;;;;;;47.27;38.90;;;16.00;99.90;;;;;;5072303;28;20172;-81
2021/09/03 07:40:18;;;;;;;50.10;40.40;;;16.00;99.90;;;;;;5071474;28;20176;-80
2021/09/03 07:42:44;;;;;;;54.33;41.57;;;16.00;99.90;;;;;;5075749;28;20186;-80
2021/09/03 07:45:11;;;;;;;54.07;40.07;;;16.10;99.90;;;;;;5082118;28;20214;-80
2021/09/03 07:47:36;;;;;;;60.67;40.37;;;16.20;99.90;;;;;;5086533;28;20179;-80
2021/09/03 07:50:03;;;;;;;49.73;38.47;;;16.20;99.90;;;;;;5086141;28;20180;-79
2021/09/03 07:52:29;;;;;;;46.17;36.67;;;16.30;99.90;;;;;;5084729;28;20168;-79
2021/09/03 07:54:55;;;;;;;53.57;39.03;;;16.30;99.90;;;;;;5076672;28;20183;-80
2021/09/03 07:57:20;;;;;;;51.87;39.60;;;16.40;99.90;;;;;;5073191;28;20586;-79
2021/09/03 07:59:46;;;;;;;49.47;38.53;;;16.50;99.90;;;;;;5073914;28;20623;-79
2021/09/03 08:02:12;;;;;;;50.00;38.97;;;16.60;99.90;;;;;;5072878;28;20224;-80
2021/09/03 08:04:37;;;;;;;53.80;37.63;;;16.80;99.90;;;;;;5072662;28;20604;-81
2021/09/03 08:07:03;;;;;;;43.77;36.33;;;17.00;99.90;;;;;;5073599;28;20172;-79
2021/09/03 08:09:29;;;;;;;46.33;37.73;;;17.10;99.90;;;;;;5072960;28;20170;-79
2021/09/03 08:11:54;;;;;;;49.00;38.47;;;17.10;99.90;;;;;;5071358;28;20633;-79
2021/09/03 08:14:20;;;;;;;47.00;34.87;;;17.20;99.90;;;;;;5072966;28;20168;-79
2021/09/03 08:16:46;;;;;;;46.00;35.73;;;17.20;99.90;;;;;;5070737;28;20200;-79
2021/09/03 08:19:12;;;;;;;46.53;34.57;;;17.30;99.90;;;;;;5072509;28;20218;-79
2021/09/03 08:21:37;;;;;;;45.77;35.27;;;17.40;99.90;;;;;;5072258;28;20620;-80
2021/09/03 08:24:03;;;;;;;47.40;34.37;;;17.40;99.90;;;;;;5072948;28;20176;-79
2021/09/03 08:26:29;;;;;;;41.40;34.03;;;17.50;99.70;;;;;;5071473;28;20279;-80
2021/09/03 08:28:55;;;;;;;43.47;34.63;;;17.70;99.00;;;;;;5073175;28;20598;-80
2021/09/03 08:31:22;;;;;;;40.67;33.90;;;17.80;98.40;;;;;;5072557;28;20188;-80
2021/09/03 08:33:48;;;;;;;39.07;31.67;;;17.80;97.90;;;;;;5072678;28;20182;-79
2021/09/03 08:36:14;;;;;;;37.70;30.40;;;17.90;97.50;;;;;;5072089;28;20204;-79
2021/09/03 08:38:40;;;;;;;38.97;31.53;;;18.00;96.40;;;;;;5072498;28;20269;-80
2021/09/03 08:41:06;;;;;;;39.87;31.60;;;18.10;96.50;;;;;;5072407;28;20227;-79
2021/09/03 08:43:31;;;;;;;36.57;29.70;;;18.10;96.40;;;;;;5072814;28;20176;-81
2021/09/03 08:45:57;;;;;;;38.60;30.93;;;18.20;96.20;;;;;;5071627;28;20172;-79
2021/09/03 08:48:24;;;;;;;37.50;31.00;;;18.30;95.80;;;;;;5072144;28;20697;-79
2021/09/03 08:50:53;;;;;;;39.17;29.37;;;18.30;95.60;;;;;;5073636;28;20180;-80
2021/09/03 08:53:20;;;;;;;32.60;27.70;;;18.60;95.00;;;;;;5075655;28;20172;-80
2021/09/03 08:55:47;;;;;;;31.53;26.70;;;18.80;93.60;;;;;;5074889;28;20263;-79
2021/09/03 08:58:13;;;;;;;32.87;27.03;;;19.00;92.40;;;;;;5071733;28;20239;-79
2021/09/03 09:00:41;;;;;;;30.93;25.57;;;19.10;91.80;;;;;;5055926;28;20169;-79
2021/09/03 09:03:13;;;;;;;32.60;26.40;;;19.10;91.00;;;;;;5054059;28;20167;-82
2021/09/03 09:05:50;;;;;;;37.13;26.43;;;19.00;91.90;;;;;;5055209;28;20641;-79
2021/09/03 09:08:19;;;;;;;36.60;25.93;;;19.00;92.00;;;;;;5056585;28;20176;-79
2021/09/03 09:10:46;;;;;;;32.23;23.33;;;19.10;91.80;;;;;;5055825;28;20165;-80
2021/09/03 09:13:14;;;;;;;29.40;23.00;;;19.30;90.50;;;;;;5055689;28;20180;-79
2021/09/03 09:15:40;;;;;;;32.80;23.37;;;19.50;90.30;;;;;;5059504;28;20287;-79
2021/09/03 09:18:05;;;;;;;32.90;24.43;;;19.50;87.80;;;;;;5067679;28;20292;-79
2021/09/03 09:20:33;;;;;;;28.17;23.30;;;19.60;87.80;;;;;;5076527;28;20310;-79
2021/09/03 09:23:04;;;;;;;32.97;24.43;;;19.50;87.60;;;;;;5076007;28;20165;-80
2021/09/03 09:25:35;;;;;;;30.43;22.27;;;19.60;88.40;;;;;;5075855;28;20164;-80
2021/09/03 09:28:22;;;;;;;30.57;22.83;;;19.90;86.70;;;;;;5077532;28;20241;-80
2021/09/03 09:30:49;;;;;;;27.33;22.67;;;19.90;83.60;;;;;;5084169;28;20266;-80
2021/09/03 09:33:19;;;;;;;27.77;23.33;;;19.90;86.50;;;;;;5077466;28;20176;-78
2021/09/03 09:35:49;;;;;;;32.33;23.27;;;20.00;82.60;;;;;;5080136;28;20253;-80
2021/09/03 09:38:17;;;;;;;29.30;22.43;;;20.10;81.60;;;;;;5081999;28;20182;-80
2021/09/03 09:40:50;;;;;;;28.80;20.13;;;20.20;80.70;;;;;;5091422;28;20174;-81
2021/09/03 09:43:27;;;;;;;32.37;21.27;;;20.20;79.50;;;;;;5086853;28;20193;-81
2021/09/03 09:46:13;;;;;;;23.10;19.17;;;20.40;79.80;;;;;;5076349;28;20164;-80
2021/09/03 09:48:51;;;;;;;24.90;19.20;;;20.60;77.50;;;;;;5074519;28;20705;-79
2021/09/03 09:51:28;;;;;;;22.73;17.90;;;20.80;73.60;;;;;;5084056;28;20176;-78
2021/09/03 09:54:02;;;;;;;23.07;18.53;;;20.90;71.50;;;;;;5090418;28;20209;-79
2021/09/03 09:56:33;;;;;;;21.23;18.67;;;21.00;72.20;;;;;;5073888;28;20222;-79
2021/09/03 09:59:02;;;;;;;26.17;17.77;;;21.00;68.50;;;;;;5075706;28;20167;-80
2021/09/03 10:01:29;;;;;;;24.90;18.43;;;21.10;69.40;;;;;;5075640;28;20217;-81
2021/09/03 10:03:55;;;;;;;25.83;16.73;;;21.20;65.20;;;;;;5073964;28;20553;-80
2021/09/03 10:06:23;;;;;;;18.77;15.90;;;21.30;66.20;;;;;;5075717;28;20182;-80
2021/09/03 10:08:50;;;;;;;22.80;17.30;;;21.40;65.40;;;;;;5076575;28;20476;-79
2021/09/03 10:11:17;;;;;;;19.40;15.77;;;21.40;59.20;;;;;;5078889;28;20215;-79
2021/09/03 10:13:43;;;;;;;21.17;16.03;;;21.50;58.60;;;;;;5081957;28;20171;-81
2021/09/03 10:16:09;;;;;;;20.77;15.23;;;21.60;59.90;;;;;;5074197;28;20662;-80
2021/09/03 10:18:38;;;;;;;21.37;15.47;;;21.50;56.90;;;;;;5073445;28;20198;-80
2021/09/03 10:21:05;;;;;;;18.13;15.30;;;21.70;58.60;;;;;;5072624;28;20171;-79
2021/09/03 10:23:50;;;;;;;20.47;15.57;;;21.70;57.40;;;;;;5076807;28;20255;-80
2021/09/03 10:26:21;;;;;;;16.93;13.10;;;21.80;56.60;;;;;;5074181;28;20195;-78
2021/09/03 10:28:47;;;;;;;16.03;12.67;;;21.80;50.70;;;;;;5066046;28;20707;-79
2021/09/03 10:31:18;;;;;;;14.73;12.37;;;21.90;49.80;;;;;;5056061;28;20202;-79
2021/09/03 10:33:45;;;;;;;15.37;13.23;;;22.00;48.80;;;;;;5055479;28;20609;-79
2021/09/03 10:36:11;;;;;;;19.63;12.93;;;22.10;50.80;;;;;;5054790;28;20657;-80
2021/09/03 10:38:42;;;;;;;16.07;12.90;;;22.10;48.80;;;;;;5054774;28;20157;-80
2021/09/03 10:41:08;;;;;;;15.27;12.70;;;22.30;49.30;;;;;;5054404;28;20188;-79
2021/09/03 10:43:45;;;;;;;15.70;14.03;;;22.30;46.20;;;;;;5054881;28;20192;-79
2021/09/03 10:46:13;;;;;;;16.17;13.37;;;22.40;47.50;;;;;;5055215;28;20178;-79
2021/09/03 10:48:48;;;;;;;15.33;12.80;;;22.30;47.10;;;;;;5053386;28;20172;-81
2021/09/03 10:51:35;;;;;;;19.67;13.57;;;22.40;49.10;;;;;;5055356;28;20160;-81
2021/09/03 10:54:14;;;;;;;17.00;12.40;;;22.40;46.00;;;;;;5077831;28;20195;-78
2021/09/03 10:56:56;;;;;;;16.00;12.13;;;22.30;46.70;;;;;;5074401;28;20209;-79
2021/09/03 10:59:22;;;;;;;13.90;12.30;;;22.50;47.30;;;;;;5058659;28;20172;-79
2021/09/03 11:01:53;;;;;;;17.43;12.47;;;22.50;42.20;;;;;;5054348;28;20169;-79
2021/09/03 11:04:21;;;;;;;15.20;12.53;;;22.50;42.60;;;;;;5054268;28;20173;-79
2021/09/03 11:06:55;;;;;;;16.70;11.90;;;22.70;47.10;;;;;;5052742;28;20180;-79
2021/09/03 11:09:27;;;;;;;19.83;13.13;;;22.80;40.30;;;;;;5053763;28;20164;-79
2021/09/03 11:11:57;;;;;;;15.70;13.20;;;22.80;40.20;;;;;;5054260;28;20501;-79
2021/09/03 11:14:28;;;;;;;16.10;13.10;;;22.80;40.80;;;;;;5053244;28;20246;-79
2021/09/03 11:17:08;;;;;;;17.50;12.80;;;22.80;42.70;;;;;;5054082;28;20712;-80
2021/09/03 11:19:44;;;;;;;14.27;12.77;;;22.90;40.30;;;;;;5052607;28;20169;-80
2021/09/03 11:22:12;;;;;;;18.70;11.70;;;23.10;37.00;;;;;;5054041;28;20180;-79
2021/09/03 11:24:56;;;;;;;17.50;11.53;;;23.10;35.20;;;;;;5051839;28;20541;-79
2021/09/03 11:27:27;;;;;;;11.53;10.17;;;23.20;20.80;;;;;;5053786;28;20211;-80
2021/09/03 11:29:57;;;;;;;13.17;11.67;;;23.30;10.40;;;;;;5054554;28;20161;-80
2021/09/03 11:32:26;;;;;;;13.80;10.83;;;23.30;10.70;;;;;;5052403;28;20256;-79
2021/09/03 11:34:52;;;;;;;14.20;12.40;;;23.40;3.70;;;;;;5052421;28;20194;-82
2021/09/03 11:37:23;;;;;;;17.13;13.07;;;23.60;6.60;;;;;;5054014;28;20569;-80
2021/09/03 11:39:53;;;;;;;16.60;11.77;;;23.40;1.60;;;;;;5053728;28;20293;-79
2021/09/03 11:42:25;;;;;;;13.37;11.10;;;23.50;1.70;;;;;;5053760;28;20170;-79
2021/09/03 11:44:57;;;;;;;14.33;12.60;;;23.60;1.00;;;;;;5053591;28;20247;-80
2021/09/03 11:47:37;;;;;;;13.47;11.83;;;23.50;1.00;;;;;;5053188;28;20657;-80
2021/09/03 11:50:11;;;;;;;15.20;12.00;;;23.60;1.00;;;;;;5052382;28;20174;-80
2021/09/03 11:52:38;;;;;;;18.47;11.30;;;23.60;1.00;;;;;;5053048;28;20178;-81
2021/09/03 11:55:07;;;;;;;13.77;10.77;;;23.60;1.00;;;;;;5053715;28;20167;-80
2021/09/03 11:57:53;;;;;;;15.47;11.27;;;23.50;1.00;;;;;;5053034;28;20202;-81
2021/09/03 12:00:20;;;;;;;12.17;10.43;;;23.60;1.00;;;;;;5053096;28;20178;-81
2021/09/03 12:02:48;;;;;;;13.67;10.93;;;23.70;1.00;;;;;;5052075;28;20184;-79
2021/09/03 12:05:14;;;;;;;13.80;11.07;;;23.90;1.00;;;;;;5051908;28;20179;-80
2021/09/03 12:07:40;;;;;;;17.07;12.17;;;23.90;1.00;;;;;;5053010;28;20194;-79
2021/09/03 12:10:06;;;;;;;18.73;10.60;;;23.90;1.00;;;;;;5052367;28;20647;-79
2021/09/03 12:12:34;;;;;;;12.57;10.50;;;23.90;1.00;;;;;;5053415;28;20171;-80
2021/09/03 12:15:01;;;;;;;11.37;8.90;;;24.00;1.00;;;;;;5052705;28;20176;-80
2021/09/03 12:17:41;;;;;;;12.20;8.80;;;24.20;1.00;;;;;;5053729;28;20286;-81
2021/09/03 12:20:13;;;;;;;9.93;8.17;;;24.30;1.00;;;;;;5053747;28;20160;-79
2021/09/03 12:22:54;;;;;;;15.87;9.07;;;24.50;1.00;;;;;;5052691;28;20326;-79
2021/09/03 12:25:33;;;;;;;10.00;7.83;;;24.40;1.00;;;;;;5055820;28;20621;-80
2021/09/03 12:28:09;;;;;;;11.73;7.87;;;24.60;1.00;;;;;;5066463;28;20299;-81
2021/09/03 12:30:36;;;;;;;12.47;8.33;;;24.70;1.00;;;;;;5066248;28;20199;-81